Time;durP1;ratioP1;P1;durP2;ratioP2;P2;SDS_P1;SDS_P2;PMS_P1;PMS_P2;Temp;Humidity;BMP_temperature;BMP_pressure;BME280_temperature;BME280_humidity;BME280_pressure;Samples;Min_cycle;Max_cycle;Signal;HPM_P1;HPM_P2
2023/12/30 00:51:48;;;;;;;11.45;1.55;;;22.50;37.60;;;;;;6063958;23;20026;-59
2023/12/30 00:54:15;;;;;;;3.88;1.30;;;22.50;37.60;;;;;;4963664;28;20057;-57
2023/12/30 00:56:42;;;;;;;2.13;1.02;;;22.40;37.70;;;;;;4961900;28;20066;-58
2023/12/30 00:59:10;;;;;;;7.80;1.17;;;22.50;37.80;;;;;;4969567;28;20461;-58
2023/12/30 01:01:37;;;;;;;2.22;0.88;;;22.50;37.70;;;;;;4969045;28;20059;-57
2023/12/30 01:04:04;;;;;;;3.97;1.00;;;22.60;37.80;;;;;;4962086;28;20054;-58
2023/12/30 01:06:32;;;;;;;4.20;1.10;;;22.60;37.70;;;;;;4961984;28;20170;-58
2023/12/30 01:09:01;;;;;;;4.10;1.45;;;22.70;37.70;;;;;;4964579;28;20481;-58
2023/12/30 01:11:28;;;;;;;3.15;1.02;;;22.70;37.70;;;;;;4960508;28;20059;-58
2023/12/30 01:13:56;;;;;;;4.10;0.95;;;22.80;37.70;;;;;;4966737;28;20059;-58
2023/12/30 01:16:23;;;;;;;2.70;0.88;;;22.80;37.60;;;;;;4971292;28;20575;-58
2023/12/30 01:18:50;;;;;;;2.35;0.98;;;22.90;37.60;;;;;;4960476;28;20058;-59
2023/12/30 01:21:18;;;;;;;4.05;1.10;;;22.90;37.60;;;;;;4967604;28;20061;-60
2023/12/30 01:23:46;;;;;;;2.95;1.10;;;22.90;37.50;;;;;;4965140;28;20051;-58
2023/12/30 01:26:14;;;;;;;3.55;1.27;;;23.00;37.50;;;;;;4960309;28;20198;-59
2023/12/30 01:28:41;;;;;;;4.68;1.40;;;22.90;37.40;;;;;;4970694;28;20490;-58
2023/12/30 01:31:09;;;;;;;3.03;0.93;;;22.90;37.40;;;;;;4971330;28;20078;-58
2023/12/30 01:33:36;;;;;;;4.18;1.10;;;23.00;37.40;;;;;;4964229;28;20077;-58
2023/12/30 01:36:05;;;;;;;3.65;1.17;;;22.90;37.30;;;;;;4964847;28;20413;-58
2023/12/30 01:38:33;;;;;;;4.55;1.10;;;22.90;37.30;;;;;;4965134;28;20509;-57
2023/12/30 01:41:00;;;;;;;3.00;1.08;;;22.90;37.30;;;;;;4968578;28;20055;-60
2023/12/30 01:43:30;;;;;;;5.28;1.60;;;22.90;37.20;;;;;;4976199;28;20054;-58
2023/12/30 01:46:02;;;;;;;4.95;1.48;;;22.90;37.20;;;;;;4985236;28;20047;-57
2023/12/30 01:48:30;;;;;;;4.05;1.40;;;22.90;37.20;;;;;;4983775;28;20050;-58
2023/12/30 01:51:00;;;;;;;4.30;1.33;;;22.90;37.20;;;;;;4980325;28;20050;-58
2023/12/30 01:53:27;;;;;;;3.20;1.00;;;22.90;37.10;;;;;;4981766;28;20516;-58
2023/12/30 01:55:57;;;;;;;3.00;1.08;;;22.90;37.10;;;;;;4983003;28;20062;-60
2023/12/30 01:58:24;;;;;;;3.40;1.05;;;22.80;37.00;;;;;;4985105;28;20062;-58
2023/12/30 02:00:54;;;;;;;4.03;1.60;;;22.80;37.00;;;;;;4982924;28;20668;-59
2023/12/30 02:03:22;;;;;;;3.10;1.20;;;22.80;37.00;;;;;;4985149;28;20066;-57
2023/12/30 02:05:50;;;;;;;4.30;1.10;;;22.80;37.10;;;;;;4983065;28;20127;-60
2023/12/30 02:08:17;;;;;;;3.47;1.00;;;22.80;37.10;;;;;;4978514;28;20051;-58
2023/12/30 02:11:19;;;;;;;3.92;1.00;;;22.80;37.10;;;;;;4984595;28;20511;-59
2023/12/30 02:13:46;;;;;;;4.40;1.10;;;22.80;37.10;;;;;;4977531;28;20405;-58
2023/12/30 02:16:15;;;;;;;5.60;1.40;;;22.80;37.10;;;;;;4982085;28;20058;-58
2023/12/30 02:18:42;;;;;;;4.07;1.10;;;22.70;37.00;;;;;;4985617;28;20061;-58
2023/12/30 02:21:09;;;;;;;2.63;1.00;;;22.70;37.10;;;;;;4980198;28;20062;-58
2023/12/30 02:23:38;;;;;;;3.85;1.15;;;22.60;37.00;;;;;;4984736;28;20054;-58
2023/12/30 02:26:07;;;;;;;3.75;1.17;;;22.60;37.10;;;;;;4977841;28;20053;-60
2023/12/30 02:28:34;;;;;;;5.68;1.20;;;22.60;37.20;;;;;;4986072;28;20054;-58
2023/12/30 02:31:01;;;;;;;4.53;1.08;;;22.60;37.20;;;;;;4990176;28;20054;-58
2023/12/30 02:33:28;;;;;;;3.42;0.93;;;22.60;37.30;;;;;;4982969;28;20496;-58
2023/12/30 02:35:55;;;;;;;3.42;1.25;;;22.60;37.40;;;;;;4984635;28;20544;-57
2023/12/30 02:38:22;;;;;;;2.35;0.73;;;22.70;37.50;;;;;;4994522;28;20062;-58
2023/12/30 02:40:51;;;;;;;2.28;0.70;;;22.70;37.50;;;;;;4983617;28;20672;-58
2023/12/30 02:43:18;;;;;;;3.97;1.00;;;22.80;37.50;;;;;;4982954;28;20054;-58
2023/12/30 02:45:45;;;;;;;4.57;1.20;;;22.80;37.40;;;;;;4986378;28;20061;-58
2023/12/30 02:48:12;;;;;;;2.47;0.90;;;22.90;37.40;;;;;;4988959;28;20060;-60
2023/12/30 02:50:40;;;;;;;3.78;1.05;;;22.90;37.40;;;;;;4983998;28;20513;-59
2023/12/30 02:53:07;;;;;;;3.78;0.90;;;22.90;37.30;;;;;;4992756;28;20062;-58
2023/12/30 02:55:34;;;;;;;4.22;1.20;;;23.00;37.30;;;;;;4987810;28;20057;-58
2023/12/30 02:58:03;;;;;;;3.28;0.95;;;23.00;37.20;;;;;;4985239;28;20057;-60
2023/12/30 03:00:30;;;;;;;2.20;1.00;;;23.00;37.20;;;;;;4985416;28;20054;-58
2023/12/30 03:02:57;;;;;;;3.13;1.27;;;23.00;37.10;;;;;;4987485;28;20054;-58
2023/12/30 03:05:27;;;;;;;2.85;0.82;;;23.00;37.10;;;;;;4984859;28;20917;-58
2023/12/30 03:07:57;;;;;;;3.17;1.00;;;23.00;37.00;;;;;;4982975;28;20413;-59
2023/12/30 03:10:24;;;;;;;4.35;1.20;;;23.00;37.00;;;;;;4985137;28;20057;-58
2023/12/30 03:12:51;;;;;;;3.20;1.08;;;23.00;37.00;;;;;;4985944;28;20053;-58
2023/12/30 03:15:21;;;;;;;3.10;1.00;;;23.00;36.90;;;;;;4989226;28;20054;-58
2023/12/30 03:17:49;;;;;;;3.28;1.20;;;23.00;36.90;;;;;;4987118;28;20054;-58
2023/12/30 03:20:16;;;;;;;3.17;1.10;;;23.00;36.90;;;;;;4985606;28;20046;-58
2023/12/30 03:22:43;;;;;;;3.25;1.10;;;23.00;36.90;;;;;;4982690;28;20061;-60
2023/12/30 03:25:10;;;;;;;3.38;1.02;;;23.00;36.90;;;;;;4983874;28;20066;-58
2023/12/30 03:27:38;;;;;;;4.78;1.27;;;22.90;36.80;;;;;;4982218;28;20058;-58
2023/12/30 04:26:35;;;;;;;3.33;0.90;;;22.60;37.30;;;;;;6090612;23;20018;31
2023/12/30 04:47:58;;;;;;;7.82;1.50;;;22.90;37.30;;;;;;5572082;23;20044;-62
2023/12/30 04:50:25;;;;;;;4.53;1.02;;;22.90;37.30;;;;;;4993091;28;20050;-62
2023/12/30 04:52:53;;;;;;;5.50;0.98;;;22.90;37.30;;;;;;4984790;28;20058;-61
2023/12/30 04:58:42;;;;;;;3.50;1.20;;;22.90;37.40;;;;;;5006937;28;20041;-61
2023/12/30 05:01:09;;;;;;;2.72;0.93;;;22.90;37.30;;;;;;4989317;28;20054;-60
2023/12/30 05:03:38;;;;;;;2.83;1.00;;;22.90;37.30;;;;;;4988460;28;20131;-60
2023/12/30 05:06:05;;;;;;;4.05;1.08;;;22.90;37.20;;;;;;4981583;28;20050;-60
2023/12/30 05:08:33;;;;;;;4.85;1.52;;;22.90;37.20;;;;;;4981700;28;20186;-61
2023/12/30 05:11:06;;;;;;;6.15;1.20;;;22.90;37.20;;;;;;4992451;28;20421;-60
2023/12/30 05:13:33;;;;;;;5.40;1.73;;;22.90;37.10;;;;;;4992535;28;20050;-60
2023/12/30 05:16:01;;;;;;;3.40;1.02;;;22.90;37.10;;;;;;4983880;28;20050;-59
2023/12/30 05:18:28;;;;;;;3.28;1.15;;;22.90;37.10;;;;;;4990240;28;20061;-59
2023/12/30 05:21:39;;;;;;;4.78;1.40;;;22.90;37.00;;;;;;4996620;28;20046;-60
2023/12/30 05:24:08;;;;;;;3.35;1.08;;;22.90;37.00;;;;;;4989060;28;20081;-61
2023/12/30 05:26:36;;;;;;;4.70;1.38;;;22.90;37.00;;;;;;4989637;28;20524;-61
2023/12/30 05:29:03;;;;;;;3.58;1.30;;;22.80;37.00;;;;;;4993290;28;20050;-60
2023/12/30 05:31:30;;;;;;;2.60;0.77;;;22.80;37.00;;;;;;4995340;28;20057;-60
2023/12/30 05:33:57;;;;;;;3.72;0.93;;;22.80;37.00;;;;;;4983996;28;20065;-61
2023/12/30 05:36:24;;;;;;;4.65;1.48;;;22.80;37.00;;;;;;4995162;28;20066;-60
2023/12/30 05:38:51;;;;;;;3.63;1.20;;;22.80;37.00;;;;;;4984863;28;20781;-60
2023/12/30 05:41:20;;;;;;;5.13;1.23;;;22.80;37.00;;;;;;4981526;28;20054;-60
2023/12/30 05:43:51;;;;;;;2.50;0.82;;;22.70;37.00;;;;;;4984772;28;20058;-61
2023/12/30 05:46:18;;;;;;;4.00;1.50;;;22.70;37.10;;;;;;5007149;28;20056;-59
2023/12/30 05:48:45;;;;;;;2.97;0.70;;;22.70;37.00;;;;;;5010744;28;20054;-61
2023/12/30 05:51:12;;;;;;;5.25;1.40;;;22.70;37.10;;;;;;5013182;28;20056;-60
2023/12/30 05:53:41;;;;;;;3.72;1.08;;;22.60;37.00;;;;;;5019506;28;20050;-60
2023/12/30 05:56:08;;;;;;;2.88;1.00;;;22.60;37.00;;;;;;5020521;28;20053;-60
2023/12/30 05:58:37;;;;;;;2.88;0.98;;;22.60;37.00;;;;;;5010352;28;20496;-60
2023/12/30 06:01:05;;;;;;;3.53;1.17;;;22.60;37.10;;;;;;5005663;28;20058;-60
2023/12/30 06:03:35;;;;;;;2.67;0.80;;;22.60;37.20;;;;;;5008127;28;20050;-61
2023/12/30 06:06:03;;;;;;;2.30;0.80;;;22.60;37.20;;;;;;5001582;28;20424;-59
2023/12/30 06:08:32;;;;;;;3.05;1.00;;;22.60;37.20;;;;;;4997095;28;20054;-62
2023/12/30 06:10:59;;;;;;;1.95;0.93;;;22.60;37.30;;;;;;4999251;28;20045;-62
2023/12/30 06:13:26;;;;;;;2.63;1.02;;;22.70;37.30;;;;;;5003278;28;20054;-61
2023/12/30 06:15:56;;;;;;;3.03;0.93;;;22.80;37.40;;;;;;5021854;28;20059;-62
2023/12/30 06:18:26;;;;;;;3.17;0.98;;;22.80;37.40;;;;;;5013002;28;20061;-62
2023/12/30 06:20:53;;;;;;;2.38;0.80;;;22.90;37.40;;;;;;5012391;28;20049;-59
2023/12/30 06:23:21;;;;;;;3.05;0.80;;;23.00;37.40;;;;;;5017705;28;20065;-58
2023/12/30 06:25:48;;;;;;;1.98;0.90;;;23.00;37.40;;;;;;5013977;28;20049;-60
2023/12/30 06:28:15;;;;;;;4.43;1.00;;;23.10;37.50;;;;;;4998333;28;20061;-58
2023/12/30 06:30:42;;;;;;;7.28;1.63;;;23.10;37.40;;;;;;5006358;28;20065;-60
2023/12/30 06:33:11;;;;;;;16.88;1.58;;;23.20;37.20;;;;;;5012215;28;20535;-60
2023/12/30 06:35:38;;;;;;;5.10;1.20;;;23.20;37.00;;;;;;5002009;28;20065;-61
2023/12/30 06:38:06;;;;;;;3.17;1.17;;;23.30;37.00;;;;;;5015273;28;20057;-62
2023/12/30 06:40:33;;;;;;;4.57;1.17;;;23.30;36.90;;;;;;5011636;28;20524;-61
2023/12/30 06:43:00;;;;;;;2.55;0.90;;;23.40;36.80;;;;;;5001190;28;20054;-61
2023/12/30 06:48:51;;;;;;;9.13;3.42;;;23.40;36.60;;;;;;5000863;28;20041;-59
2023/12/30 06:51:18;;;;;;;7.22;3.97;;;23.40;36.60;;;;;;5003283;28;20050;-57
2023/12/30 06:53:45;;;;;;;7.30;4.53;;;23.40;36.60;;;;;;5007754;28;20065;-57
2023/12/30 06:56:13;;;;;;;8.57;3.40;;;23.40;36.50;;;;;;5009472;28;20081;-58
2023/12/30 06:58:41;;;;;;;5.15;2.50;;;23.40;36.50;;;;;;5006306;28;20960;-56
2023/12/30 07:07:24;;;;;;;4.32;2.10;;;23.40;36.40;;;;;;5072481;27;1349676;-54
2023/12/30 07:09:51;;;;;;;8.90;2.47;;;23.30;36.50;;;;;;5084457;28;20059;-57
2023/12/30 07:12:18;;;;;;;4.03;2.17;;;23.30;36.60;;;;;;5076899;28;20404;-57
2023/12/30 07:14:45;;;;;;;6.03;2.40;;;23.30;36.60;;;;;;5085090;28;20492;-57
2023/12/30 07:17:13;;;;;;;3.55;2.08;;;23.30;36.60;;;;;;5092281;28;20048;-56
2023/12/30 07:19:40;;;;;;;5.47;2.10;;;23.20;36.50;;;;;;5082818;28;20780;-57
2023/12/30 07:22:07;;;;;;;3.33;2.03;;;23.20;36.50;;;;;;5082901;28;20055;-57
2023/12/30 07:24:36;;;;;;;4.10;1.80;;;23.20;36.60;;;;;;5076619;28;20052;-57
2023/12/30 07:27:03;;;;;;;6.70;1.80;;;23.10;36.60;;;;;;5081244;28;20067;-58
2023/12/30 07:29:30;;;;;;;6.65;2.30;;;23.10;36.60;;;;;;5089299;28;20056;-57
2023/12/30 07:31:58;;;;;;;5.38;1.90;;;23.10;36.60;;;;;;5080991;28;20055;-58
2023/12/30 07:34:25;;;;;;;6.43;1.75;;;23.10;36.60;;;;;;5073518;28;20053;-57
2023/12/30 07:36:52;;;;;;;7.88;1.50;;;23.10;36.60;;;;;;5085900;28;20400;-58
2023/12/30 07:39:20;;;;;;;4.15;1.50;;;23.10;36.60;;;;;;5077824;28;20056;-58
2023/12/30 07:41:51;;;;;;;2.90;1.25;;;23.00;36.60;;;;;;5092741;28;20053;-58
2023/12/30 07:44:18;;;;;;;3.50;1.67;;;23.00;36.60;;;;;;5091458;28;20122;-57
2023/12/30 07:46:46;;;;;;;4.55;1.63;;;23.00;36.60;;;;;;5102896;28;20048;-59
2023/12/30 07:49:14;;;;;;;5.53;1.90;;;23.00;36.70;;;;;;5095685;28;20481;-58
2023/12/30 07:51:41;;;;;;;4.03;1.70;;;22.90;36.70;;;;;;5095803;28;20067;-58
2023/12/30 07:54:09;;;;;;;3.05;1.27;;;22.90;36.70;;;;;;5095157;28;20145;-57
2023/12/30 07:56:36;;;;;;;4.30;1.70;;;23.00;36.80;;;;;;5103700;28;20055;-57
2023/12/30 07:59:05;;;;;;;2.58;1.33;;;23.00;36.90;;;;;;5103193;28;20511;-60
2023/12/30 08:01:32;;;;;;;3.25;1.50;;;23.00;36.90;;;;;;5098752;28;20110;-59
2023/12/30 08:03:59;;;;;;;2.97;1.33;;;23.00;37.00;;;;;;5095577;28;20045;-59
2023/12/30 08:06:26;;;;;;;4.50;1.30;;;23.10;37.00;;;;;;5089151;28;20528;-60
2023/12/30 08:08:53;;;;;;;2.40;1.10;;;23.10;37.00;;;;;;5099471;28;20048;-59
2023/12/30 08:11:20;;;;;;;3.22;1.50;;;23.10;36.90;;;;;;5092317;28;20048;-58
2023/12/30 08:13:47;;;;;;;3.90;1.33;;;23.10;36.80;;;;;;5088164;28;20044;-59
2023/12/30 08:16:16;;;;;;;3.58;1.40;;;23.20;36.80;;;;;;5090747;28;20407;-57
2023/12/30 08:18:44;;;;;;;2.63;1.00;;;23.20;36.80;;;;;;5083612;28;20512;-60
2023/12/30 08:21:11;;;;;;;3.13;1.38;;;23.30;36.80;;;;;;5086214;28;20385;-60
2023/12/30 08:23:38;;;;;;;3.55;1.27;;;23.30;36.70;;;;;;5085639;28;20531;-63
2023/12/30 08:26:05;;;;;;;6.80;1.63;;;23.30;36.70;;;;;;5087781;28;20048;-63
2023/12/30 08:28:33;;;;;;;6.20;1.45;;;23.30;37.20;;;;;;5080132;28;20052;-63
2023/12/30 08:31:01;;;;;;;3.92;1.17;;;23.30;36.60;;;;;;5090509;28;20058;-63
2023/12/30 08:33:30;;;;;;;3.90;1.30;;;23.30;36.60;;;;;;5080968;28;20335;-59
2023/12/30 08:36:29;;;;;;;5.50;1.88;;;23.30;36.60;;;;;;5085675;28;20059;-60
2023/12/30 08:38:56;;;;;;;4.18;1.30;;;23.30;36.50;;;;;;5083304;28;20048;-60
2023/12/30 08:41:27;;;;;;;3.00;1.20;;;23.30;36.50;;;;;;5089093;28;20059;-58
2023/12/30 08:43:56;;;;;;;3.15;1.23;;;23.30;36.50;;;;;;5086022;28;20060;-61
2023/12/30 08:46:23;;;;;;;2.85;1.20;;;23.30;36.50;;;;;;5087433;28;20054;-61
2023/12/30 08:48:52;;;;;;;4.88;1.20;;;23.20;36.40;;;;;;5080037;28;20053;-57
2023/12/30 08:51:20;;;;;;;3.22;1.15;;;23.20;36.40;;;;;;5078734;28;20052;-61
2023/12/30 08:53:47;;;;;;;3.60;1.45;;;23.20;36.50;;;;;;5087421;28;20416;-60
2023/12/30 08:56:14;;;;;;;6.90;1.80;;;23.20;36.50;;;;;;5074007;28;20052;-60
2023/12/30 08:58:41;;;;;;;3.22;1.27;;;23.20;36.50;;;;;;5080191;28;20047;-60
2023/12/30 09:01:08;;;;;;;3.50;1.30;;;23.20;36.50;;;;;;5077311;28;20052;-61
2023/12/30 09:07:00;;;;;;;4.47;1.20;;;23.10;36.50;;;;;;5086046;28;20020;-59
2023/12/30 09:09:27;;;;;;;3.45;1.42;;;23.10;36.50;;;;;;5083949;28;20055;-59
2023/12/30 09:11:54;;;;;;;4.45;2.25;;;23.10;36.50;;;;;;5083413;28;20072;-58
2023/12/30 09:14:22;;;;;;;3.83;2.15;;;23.10;36.60;;;;;;5083878;28;20044;-58
2023/12/30 09:16:50;;;;;;;3.63;1.63;;;23.00;36.60;;;;;;5088620;28;20070;-58
2023/12/30 09:19:17;;;;;;;5.97;1.75;;;23.00;36.60;;;;;;5077441;28;20047;-58
2023/12/30 09:21:44;;;;;;;3.58;1.73;;;23.00;36.60;;;;;;5085843;28;20056;-58
2023/12/30 09:24:14;;;;;;;3.60;1.55;;;22.90;36.60;;;;;;5074451;28;20056;-58
2023/12/30 09:26:41;;;;;;;4.65;1.70;;;22.90;36.70;;;;;;5083563;28;20067;-58
2023/12/30 09:29:08;;;;;;;5.15;1.67;;;22.90;36.80;;;;;;5082227;28;20060;-57
2023/12/30 09:31:35;;;;;;;3.13;1.30;;;22.90;36.90;;;;;;5083897;28;20066;-59
2023/12/30 09:34:03;;;;;;;8.38;1.35;;;22.90;37.00;;;;;;5086596;28;20044;-58
2023/12/30 09:36:31;;;;;;;3.40;1.30;;;23.00;37.10;;;;;;5086800;28;20051;-57
2023/12/30 09:38:58;;;;;;;3.10;1.33;;;23.00;37.00;;;;;;5088833;28;20048;-58
2023/12/30 09:41:30;;;;;;;3.38;1.30;;;23.10;37.00;;;;;;5081733;28;20051;-58
2023/12/30 09:44:00;;;;;;;3.00;1.25;;;23.10;37.00;;;;;;5089219;28;20051;-58
2023/12/30 09:46:28;;;;;;;3.53;1.40;;;23.20;37.00;;;;;;5095086;28;20488;-57
2023/12/30 09:48:58;;;;;;;4.43;1.50;;;23.20;37.00;;;;;;5097309;28;20534;-57
2023/12/30 09:51:27;;;;;;;3.78;1.60;;;23.20;37.00;;;;;;5092414;28;20407;-60
2023/12/30 09:53:55;;;;;;;3.33;1.50;;;23.20;36.90;;;;;;5089177;28;20393;-58
2023/12/30 09:56:23;;;;;;;7.30;1.50;;;23.30;36.90;;;;;;5084308;28;20412;-59
2023/12/30 09:58:54;;;;;;;2.72;1.25;;;23.30;36.90;;;;;;5088540;28;20055;-59
2023/12/30 10:01:22;;;;;;;2.72;1.20;;;23.30;36.90;;;;;;5086893;28;20062;-60
2023/12/30 10:03:49;;;;;;;3.35;1.60;;;23.30;36.90;;;;;;5091187;28;20053;-59
2023/12/30 10:06:21;;;;;;;3.92;1.38;;;23.30;36.80;;;;;;5093085;28;20055;-59
2023/12/30 10:08:49;;;;;;;3.92;1.58;;;23.30;36.80;;;;;;5088714;28;20063;-59
2023/12/30 10:11:17;;;;;;;6.15;1.60;;;23.30;36.80;;;;;;5085123;28;20412;-58
2023/12/30 10:13:45;;;;;;;2.75;1.52;;;23.30;36.80;;;;;;5085336;28;20074;-57
2023/12/30 10:16:15;;;;;;;3.63;1.42;;;23.30;36.80;;;;;;5079190;28;20054;-58
2023/12/30 10:18:42;;;;;;;4.57;1.48;;;23.30;36.70;;;;;;5077546;28;21611;-61
2023/12/30 10:21:09;;;;;;;3.38;1.23;;;23.30;36.80;;;;;;5086351;28;20497;-64
2023/12/30 10:23:37;;;;;;;8.98;1.27;;;23.30;36.80;;;;;;5082782;28;20543;-64
2023/12/30 10:26:05;;;;;;;2.55;1.05;;;23.30;36.80;;;;;;5084807;28;20064;-62
2023/12/30 10:28:32;;;;;;;3.95;1.70;;;23.20;36.80;;;;;;5077425;28;20059;-63
2023/12/30 10:31:03;;;;;;;5.35;1.50;;;23.20;36.80;;;;;;5079242;28;20052;-63
2023/12/30 10:33:32;;;;;;;10.20;1.23;;;23.20;36.70;;;;;;5082289;28;20401;-63
2023/12/30 10:36:00;;;;;;;3.45;1.25;;;23.20;36.70;;;;;;5085153;28;20048;-64
2023/12/30 10:38:28;;;;;;;5.93;1.40;;;23.10;36.70;;;;;;5080241;28;20048;-65
2023/12/30 10:40:55;;;;;;;3.22;1.38;;;23.10;36.80;;;;;;5081478;28;20074;-64
2023/12/30 10:43:22;;;;;;;3.33;1.63;;;23.10;36.80;;;;;;5083039;28;20499;-64
2023/12/30 10:45:57;;;;;;;3.65;1.55;;;23.10;36.70;;;;;;5078736;28;20056;-61
2023/12/30 10:48:29;;;;;;;6.15;1.77;;;23.10;36.70;;;;;;5071471;28;20048;-60
2023/12/30 10:50:57;;;;;;;3.97;1.70;;;23.10;36.70;;;;;;5073246;28;20060;-61
2023/12/30 10:53:28;;;;;;;4.50;1.50;;;23.00;37.20;;;;;;5084774;28;20051;-62
2023/12/30 10:55:59;;;;;;;2.78;1.48;;;23.00;36.70;;;;;;5078888;28;20056;-61
2023/12/30 10:58:26;;;;;;;3.75;1.52;;;23.00;36.70;;;;;;5078063;28;20052;-61
2023/12/30 11:00:57;;;;;;;5.50;1.27;;;22.90;36.70;;;;;;5075173;28;20055;-60
2023/12/30 11:03:25;;;;;;;3.35;1.35;;;22.90;36.70;;;;;;5074128;28;20048;-59
2023/12/30 11:06:04;;;;;;;5.88;1.60;;;22.90;36.70;;;;;;5076076;28;20062;-60
2023/12/30 11:08:32;;;;;;;5.93;1.63;;;22.90;36.50;;;;;;5072133;28;20067;-60
2023/12/30 11:10:59;;;;;;;4.97;1.88;;;22.80;36.50;;;;;;5078201;28;20404;-61
2023/12/30 11:13:26;;;;;;;5.30;1.80;;;22.80;36.50;;;;;;5079029;28;20055;-61
2023/12/30 11:15:54;;;;;;;3.75;1.35;;;22.80;36.50;;;;;;5073206;28;20063;-59
2023/12/30 11:18:46;;;;;;;10.50;1.80;;;22.80;36.50;;;;;;5073676;28;20049;-60
2023/12/30 11:21:34;;;;;;;19.48;2.00;;;22.80;36.80;;;;;;5079564;28;20063;-64
2023/12/30 11:24:02;;;;;;;20.90;2.10;;;22.80;37.00;;;;;;5079273;28;20052;-65
2023/12/30 11:26:30;;;;;;;11.05;1.70;;;22.80;37.00;;;;;;5082200;28;20052;-62
2023/12/30 11:28:59;;;;;;;7.55;1.90;;;22.80;37.00;;;;;;5078293;28;20518;-62
2023/12/30 11:31:32;;;;;;;8.80;1.70;;;22.90;37.00;;;;;;5076011;28;20492;-61
2023/12/30 11:34:01;;;;;;;8.23;1.63;;;22.90;36.90;;;;;;5071854;28;20049;-61
2023/12/30 11:36:30;;;;;;;3.53;1.58;;;23.00;36.90;;;;;;5086402;28;20051;-62
2023/12/30 11:38:59;;;;;;;7.32;1.75;;;23.00;36.80;;;;;;5082807;28;20052;-57
2023/12/30 11:41:27;;;;;;;7.35;1.70;;;23.00;36.80;;;;;;5079130;28;20053;-61
2023/12/30 11:43:57;;;;;;;5.43;1.55;;;23.00;36.60;;;;;;5081025;28;20063;-61
2023/12/30 11:46:25;;;;;;;5.30;1.77;;;23.10;36.60;;;;;;5078935;28;20052;-62
2023/12/30 11:48:53;;;;;;;5.45;1.30;;;23.10;36.50;;;;;;5086877;28;20062;-62
2023/12/30 11:51:21;;;;;;;4.50;1.50;;;23.10;36.50;;;;;;5085571;28;20044;-59
2023/12/30 11:53:50;;;;;;;4.72;1.63;;;23.10;36.40;;;;;;5079536;28;20063;-61
2023/12/30 11:56:19;;;;;;;7.30;1.80;;;23.10;36.40;;;;;;5081913;28;20500;-62
2023/12/30 11:58:47;;;;;;;4.72;1.48;;;23.10;36.30;;;;;;5080444;28;20048;-62
2023/12/30 12:01:14;;;;;;;3.55;1.25;;;23.10;36.30;;;;;;5081894;28;20058;-62
2023/12/30 12:03:42;;;;;;;5.15;1.70;;;23.10;36.30;;;;;;5087333;28;20048;-61
2023/12/30 12:06:10;;;;;;;4.63;1.50;;;23.10;36.30;;;;;;5081285;28;20063;-62
2023/12/30 12:08:37;;;;;;;4.55;1.50;;;23.10;36.20;;;;;;5076738;28;20061;-62
2023/12/30 12:11:07;;;;;;;5.30;1.65;;;23.10;36.10;;;;;;5081600;28;20052;-62
2023/12/30 12:13:34;;;;;;;4.50;1.55;;;23.10;36.10;;;;;;5080658;28;20420;-62
2023/12/30 12:16:04;;;;;;;5.22;1.38;;;23.00;36.10;;;;;;5083881;28;20049;-61
2023/12/30 12:18:32;;;;;;;4.85;1.60;;;23.00;36.10;;;;;;5077640;28;20056;-61
2023/12/30 12:21:03;;;;;;;2.67;1.00;;;23.00;36.10;;;;;;5077334;28;20056;-61
2023/12/30 12:23:32;;;;;;;4.50;1.40;;;23.00;36.10;;;;;;5085044;28;20059;-62
2023/12/30 12:26:00;;;;;;;5.15;1.60;;;23.00;36.10;;;;;;5082187;28;20070;-61
2023/12/30 12:28:28;;;;;;;5.72;1.67;;;23.00;36.00;;;;;;5087018;28;20055;-62
2023/12/30 12:30:56;;;;;;;5.15;1.38;;;22.90;36.00;;;;;;5083161;28;20047;-62
2023/12/30 12:33:23;;;;;;;3.17;1.30;;;22.90;35.90;;;;;;5084724;28;20400;-61
2023/12/30 12:35:50;;;;;;;5.35;1.55;;;22.90;36.00;;;;;;5087659;28;20396;-62
2023/12/30 12:38:18;;;;;;;5.25;1.50;;;22.90;36.10;;;;;;5085468;28;20075;-62
2023/12/30 12:40:45;;;;;;;3.45;1.20;;;22.90;36.00;;;;;;5082160;28;20060;-61
2023/12/30 12:43:12;;;;;;;4.07;1.40;;;22.80;36.00;;;;;;5079217;28;20055;-62
2023/12/30 12:45:41;;;;;;;6.65;2.10;;;22.70;36.00;;;;;;5085052;28;20051;-62
2023/12/30 12:48:08;;;;;;;5.22;1.92;;;22.80;36.10;;;;;;5077238;28;20060;-61
2023/12/30 12:50:35;;;;;;;4.07;1.48;;;22.80;36.10;;;;;;5086412;28;20052;-61
2023/12/30 12:53:03;;;;;;;2.92;1.55;;;22.70;36.10;;;;;;5087217;28;20064;-61
2023/12/30 12:55:30;;;;;;;4.15;1.58;;;22.70;36.20;;;;;;5083682;28;20060;-60
2023/12/30 12:57:57;;;;;;;5.72;1.40;;;22.60;36.30;;;;;;5086898;28;20055;-61
2023/12/30 13:00:26;;;;;;;5.00;1.73;;;22.70;36.40;;;;;;5085693;28;20048;-61
2023/12/30 13:02:55;;;;;;;2.83;1.40;;;22.70;36.50;;;;;;5085689;28;20063;-59
2023/12/30 13:05:22;;;;;;;3.90;1.30;;;22.70;36.50;;;;;;5082391;28;20404;-61
2023/12/30 13:07:50;;;;;;;2.25;1.15;;;22.80;36.60;;;;;;5084173;28;20053;-62
2023/12/30 13:10:38;;;;;;;2.58;1.25;;;22.80;36.60;;;;;;5085560;28;20443;-62
2023/12/30 13:13:06;;;;;;;3.15;1.20;;;22.80;36.50;;;;;;5081752;28;20507;-62
2023/12/30 13:15:33;;;;;;;3.25;1.10;;;22.90;36.50;;;;;;5084254;28;20432;-60
2023/12/30 13:18:05;;;;;;;3.60;1.40;;;22.90;36.50;;;;;;5077243;28;20491;-61
2023/12/30 13:20:32;;;;;;;3.63;1.20;;;23.00;36.50;;;;;;5080819;28;20048;-62
2023/12/30 13:23:02;;;;;;;3.95;1.58;;;23.00;36.50;;;;;;5078122;28;20052;-63
2023/12/30 13:25:30;;;;;;;12.30;1.50;;;23.00;36.60;;;;;;5074634;28;20063;-62
2023/12/30 13:27:57;;;;;;;8.13;1.30;;;23.00;36.70;;;;;;5077131;28;20055;-60
2023/12/30 13:30:25;;;;;;;1.63;1.13;;;23.10;36.70;;;;;;5075583;28;20055;-59
2023/12/30 13:32:56;;;;;;;11.43;1.55;;;23.10;37.20;;;;;;5083535;28;20067;-60
2023/12/30 13:35:33;;;;;;;9.00;1.67;;;23.10;36.70;;;;;;5081164;28;20052;-62
2023/12/30 13:38:01;;;;;;;16.83;1.58;;;23.10;36.60;;;;;;5077537;28;20052;-57
2023/12/30 13:40:28;;;;;;;4.60;1.25;;;23.10;36.50;;;;;;5081117;28;20055;-59
2023/12/30 13:43:00;;;;;;;3.75;1.23;;;23.10;36.50;;;;;;5079379;28;20056;-62
2023/12/30 13:45:32;;;;;;;3.25;1.10;;;23.10;36.50;;;;;;5083391;28;20044;-60
2023/12/30 13:50:49;;;;;;;5.05;1.15;;;23.10;36.40;;;;;;5076846;28;20412;-58
2023/12/30 13:53:16;;;;;;;6.57;1.50;;;23.10;36.30;;;;;;5073848;28;20052;-58
2023/12/30 13:55:43;;;;;;;3.25;1.08;;;23.10;36.30;;;;;;5074304;28;20040;-59
2023/12/30 13:58:11;;;;;;;4.50;1.30;;;23.10;36.30;;;;;;5082384;28;20052;-58
2023/12/30 14:00:40;;;;;;;7.40;1.30;;;23.10;36.40;;;;;;5081833;28;20064;-57
2023/12/30 14:03:07;;;;;;;4.97;1.08;;;23.10;36.40;;;;;;5075809;28;20048;-58
2023/12/30 14:05:39;;;;;;;3.65;1.17;;;23.10;36.40;;;;;;5077376;28;20825;-58
2023/12/30 14:08:17;;;;;;;3.78;1.25;;;23.00;36.30;;;;;;5073362;28;20262;-57
2023/12/30 14:10:47;;;;;;;7.50;1.38;;;23.00;36.30;;;;;;5079860;28;20055;-57
2023/12/30 14:13:19;;;;;;;3.28;1.13;;;23.00;36.30;;;;;;5081424;28;20040;-58
2023/12/30 14:15:47;;;;;;;9.35;1.23;;;23.00;36.30;;;;;;5073977;28;20052;-58
2023/12/30 14:18:15;;;;;;;3.10;1.23;;;22.90;36.30;;;;;;5077267;28;20528;-59
2023/12/30 14:20:43;;;;;;;7.75;1.42;;;22.90;36.30;;;;;;5080742;28;20051;-57
2023/12/30 14:23:12;;;;;;;4.55;1.20;;;22.90;36.40;;;;;;5077605;28;20071;-58
2023/12/30 14:25:40;;;;;;;3.63;1.30;;;22.80;36.40;;;;;;5071056;28;20055;-57
2023/12/30 14:28:07;;;;;;;4.55;1.38;;;22.90;36.90;;;;;;5075926;28;20048;-57
2023/12/30 14:30:35;;;;;;;6.05;1.40;;;22.80;36.40;;;;;;5085984;28;20063;-56
2023/12/30 14:33:04;;;;;;;7.22;1.65;;;22.80;36.10;;;;;;5087744;28;20051;-56
2023/12/30 14:35:31;;;;;;;5.20;1.30;;;22.80;35.90;;;;;;5077914;28;20044;-56
2023/12/30 14:38:01;;;;;;;5.07;1.42;;;22.70;35.70;;;;;;5082847;28;20051;-57
2023/12/30 14:40:29;;;;;;;5.80;1.15;;;22.70;35.60;;;;;;5082968;28;20115;-58
2023/12/30 14:42:57;;;;;;;2.90;1.00;;;22.60;35.40;;;;;;5080314;28;20078;-59
2023/12/30 14:45:24;;;;;;;5.88;1.38;;;22.60;35.70;;;;;;5079822;28;20048;-59
2023/12/30 14:47:51;;;;;;;4.80;1.35;;;22.60;35.70;;;;;;5082379;28;20504;-59
2023/12/30 14:50:18;;;;;;;3.75;1.30;;;22.60;35.60;;;;;;5080349;28;20078;-58
2023/12/30 14:52:46;;;;;;;2.88;1.17;;;22.60;35.60;;;;;;5078481;28;20052;-57
2023/12/30 14:55:13;;;;;;;2.10;1.00;;;22.60;35.60;;;;;;5079116;28;20118;-55
2023/12/30 14:57:42;;;;;;;2.85;1.00;;;22.60;35.70;;;;;;5076806;28;20052;-57
2023/12/30 15:00:13;;;;;;;2.65;0.93;;;22.60;35.70;;;;;;5080432;28;20051;-59
2023/12/30 15:02:41;;;;;;;3.95;0.80;;;22.60;35.70;;;;;;5079471;28;20527;-56
2023/12/30 15:05:10;;;;;;;7.72;1.10;;;22.70;35.70;;;;;;5071495;28;20059;-59
2023/12/30 15:07:38;;;;;;;3.70;1.27;;;22.70;35.60;;;;;;5074611;28;20673;-58
2023/12/30 15:10:07;;;;;;;3.78;1.30;;;22.80;35.60;;;;;;5083702;28;20589;-60
2023/12/30 15:12:35;;;;;;;4.82;1.40;;;22.80;35.40;;;;;;5080725;28;20463;-61
2023/12/30 15:15:04;;;;;;;1.92;0.88;;;22.80;35.30;;;;;;5072440;28;20082;-60
2023/12/30 15:17:31;;;;;;;2.88;1.05;;;22.80;35.20;;;;;;5075832;28;20056;-59